Station: Cobar  

  Atmospheric Gas Attenuation - ITU Rec 676-11   ----------------- dB/100km -----------------
Date Time Temp RH % AH g/m3 Dew Point Wind Direction Speed kph Gust kph Barometer mB Rainfall Since 9am 24GHz 47GHz 76GHz 122GHz 134GHz 241GHz
08/05 12:30 14.9 58 7.39 6.7 17 24 1025.8 0 17.0 24.1 35.1 91.7 82.5 282.8
08/05 12:20 14.9 57 7.26 6.5 19 22 1025.9 0 16.7 23.9 34.6 90.4 80.9 277.1
08/05 12:10 14.1 60 7.28 6.5 15 20 1026 0 16.8 24.2 35.0 91.5 82.0 280.8
08/05 12:00 14 59 7.12 6.1 19 30 1026.3 0 16.4 24.0 34.5 90.0 80.1 274.2
08/05 11:50 14.1 60 7.28 6.5 17 20 1026.5 0 16.8 24.2 35.0 91.6 82.0 280.9
08/05 11:40 14.4 59 7.29 6.5 11 15 1026.6 0 16.8 24.1 35.0 91.3 81.8 280.3
08/05 11:30 13.8 59 7.03 5.9 22 32 1026.7 0 16.2 23.9 34.2 89.4 79.2 271.0
08/05 11:20 14.1 58 7.04 6 24 28 1026.8 0 16.2 23.9 34.1 89.2 79.0 270.4
08/05 11:10 13.4 60 6.98 5.8 22 30 1026.9 0 16.1 23.9 34.2 89.3 79.0 270.2
08/05 11:00 12.9 60 6.76 5.3 20 30 1026.9 0 15.7 23.7 33.6 87.6 76.7 262.1
08/05 10:50 12.8 61 6.83 5.5 19 28 1027 0 15.9 23.9 33.9 88.5 77.7 265.6
08/05 10:40 12.6 62 6.86 5.5 20 26 1027 0 15.9 24.0 34.1 89.0 78.2 267.6
08/05 10:30 12.7 62 6.9 5.6 20 28 1026.8 0 16.0 24.0 34.2 89.3 78.6 269.0
08/05 10:20 12.1 62 6.65 5 20 26 1027 0 15.5 23.8 33.5 87.4 76.1 259.9
08/05 10:10 12.3 62 6.73 5.2 26 30 1027 0 15.7 23.9 33.7 88.0 76.9 262.8
08/05 10:00 12.2 62 6.69 5.1 19 33 1027 0 15.6 23.8 33.6 87.7 76.5 261.3
08/05 09:50 11.5 63 6.51 4.7 22 26 1027 0 15.2 23.7 33.2 86.6 74.9 255.6
08/05 09:40 11.6 62 6.45 4.6 17 24 1026.9 0 15.1 23.6 32.9 85.9 74.0 252.6
08/05 09:30 10.9 64 6.37 4.4 19 28 1026.9 0 15.0 23.7 32.9 85.8 73.7 251.2
08/05 09:20 10.5 64 6.21 4 19 24 1026.8 0 14.6 23.5 32.5 84.6 72.0 245.3
08/05 09:10 9.9 65 6.07 3.6 15 19 1026.8 0 14.4 23.4 32.2 83.8 70.7 240.9
08/05 09:00 9.4 66 5.97 3.4 17 22 1026.7 0 14.2 23.4 32.0 83.3 69.9 237.9
08/05 08:50 8.9 66 5.78 2.9 19 20 1026.7 0 13.8 23.2 31.4 81.8 67.9 230.8
08/05 08:40 8.4 67 5.69 2.6 19 22 1026.7 0 13.6 23.2 31.3 81.4 67.2 228.2
08/05 08:30 8 67 5.54 2.3 13 20 1026.7 0 13.3 23.1 30.8 80.2 65.6 222.6
08/05 08:20 7.3 67 5.3 1.6 15 17 1026.8 0 12.8 22.9 30.2 78.5 63.1 213.8
08/05 08:10 7 68 5.27 1.5 11 13 1026.8 0 12.7 22.9 30.2 78.5 63.0 213.2
08/05 08:00 6.5 69 5.18 1.2 11 15 1026.7 0 12.6 22.9 30.0 78.0 62.2 210.5
08/05 07:50 6.1 70 5.12 1.1 11 11 1026.7 0 12.5 22.9 29.9 77.8 61.8 208.8
08/05 07:40 5.6 72 5.09 1 9 11 1026.7 0 12.4 23.0 30.0 78.0 61.8 208.8
08/05 07:30 5.1 73 5 0.7 11 13 1026.6 0 12.2 23.0 29.8 77.5 61.0 205.9
08/05 07:20 4.8 73 4.9 0.4 11 13 1026.5 0 12.0 22.9 29.5 76.7 59.9 202.1
08/05 07:10 4.6 74 4.9 0.4 11 11 1026.3 0 12.0 22.9 29.6 76.9 60.1 202.6
08/05 07:00 4.6 73 4.83 0.2 9 11 1026.3 0 11.9 22.8 29.3 76.2 59.1 199.4
08/05 06:50 4.8 72 4.83 0.2 9 11 1026.3 0 11.9 22.8 29.3 76.0 59.0 198.9
08/05 06:40 5.1 70 4.79 0.1 11 11 1026.2 0 11.8 22.6 29.0 75.3 58.2 196.3
08/05 06:30 5.1 70 4.79 0.1 9 13 1026.2 0 11.8 22.6 29.0 75.3 58.2 196.3
08/05 06:20 5 70 4.76 0 11 11 1026.2 0 11.7 22.6 28.9 75.0 57.9 195.2
08/05 06:10 5 70 4.76 0 11 11 1026.2 0 11.7 22.6 28.9 75.0 57.9 195.2
08/05 06:00 4.9 71 4.8 0.1 11 13 1026.1 0 11.8 22.7 29.1 75.5 58.5 197.3
08/05 05:50 5.2 70 4.82 0.2 9 11 1025.9 0 11.8 22.7 29.1 75.5 58.5 197.4
08/05 05:40 5.2 70 4.82 0.2 9 11 1025.9 0 11.8 22.7 29.1 75.5 58.5 197.4
08/05 05:30 5 71 4.83 0.2 9 13 1026 0 11.9 22.7 29.2 75.8 58.8 198.4
08/05 05:20 5 71 4.83 0.2 9 11 1025.9 0 11.9 22.7 29.2 75.7 58.8 198.3
08/05 05:10 5 71 4.83 0.2 9 11 1025.8 0 11.9 22.7 29.2 75.7 58.8 198.3
08/05 05:00 4.8 71 4.76 0 9 11 1025.9 0 11.7 22.7 29.0 75.2 58.1 195.7
08/05 04:50 5.1 70 4.79 0.1 9 11 1025.8 0 11.8 22.6 29.0 75.2 58.2 196.3
08/05 04:40 5 70 4.76 0 9 11 1025.7 0 11.7 22.6 28.9 75.0 57.9 195.1
08/05 04:30 5.1 69 4.72 -0.1 9 11 1025.8 0 11.6 22.5 28.7 74.5 57.3 193.1
08/05 04:20 5.3 69 4.79 0.1 9 11 1025.8 0 11.8 22.6 28.9 75.0 58.1 195.8
08/05 04:10 5.5 68 4.78 0.1 9 11 1025.8 0 11.8 22.5 28.8 74.7 57.8 194.8
08/05 04:00 5 70 4.76 0 9 11 1025.9 0 11.7 22.6 28.9 75.0 57.9 195.2
08/05 03:50 5.5 67 4.71 -0.1 9 11 1025.8 0 11.6 22.4 28.5 74.0 56.9 191.7
08/05 03:40 5.4 68 4.75 0 9 11 1025.8 0 11.7 22.5 28.7 74.5 57.5 193.7
08/05 03:30 5.5 67 4.71 -0.1 11 11 1025.9 0 11.6 22.4 28.5 74.0 56.9 191.7
08/05 03:20 5.3 68 4.72 -0.1 11 13 1025.9 0 11.6 22.5 28.6 74.3 57.2 192.6
08/05 03:10 5.2 68 4.69 -0.2 9 11 1026 0 11.6 22.5 28.6 74.1 56.9 191.5
08/05 03:00 5.2 68 4.69 -0.2 9 11 1026.2 0 11.6 22.5 28.6 74.1 56.9 191.6
08/05 02:50 4.9 69 4.66 -0.3 9 11 1026.3 0 11.5 22.5 28.6 74.1 56.7 191.0
08/05 02:40 5.3 67 4.65 -0.3 9 11 1026.3 0 11.5 22.4 28.4 73.6 56.3 189.6
08/05 02:30 5.1 68 4.65 -0.3 9 11 1026.3 0 11.5 22.4 28.4 73.8 56.5 190.0
08/05 02:20 5.6 65 4.6 -0.4 7 9 1026.3 0 11.4 22.2 28.1 72.8 55.5 186.6
08/05 02:10 5.5 66 4.64 -0.3 11 11 1026.4 0 11.5 22.3 28.3 73.4 56.0 188.7
08/05 02:00 5.4 67 4.68 -0.2 9 11 1026.4 0 11.5 22.4 28.5 73.9 56.6 190.7
08/05 01:50 5.3 67 4.65 -0.3 11 11 1026.4 0 11.5 22.4 28.4 73.6 56.3 189.6
08/05 01:40 5.5 66 4.64 -0.3 9 11 1026.4 0 11.5 22.3 28.3 73.4 56.0 188.7
08/05 01:30 5.6 65 4.6 -0.4 9 11 1026.4 0 11.4 22.2 28.1 72.8 55.5 186.6
08/05 01:20 5.6 65 4.6 -0.4 9 9 1026.4 0 11.4 22.2 28.1 72.8 55.5 186.6
08/05 01:10 5.7 65 4.63 -0.4 11 11 1026.4 0 11.4 22.2 28.2 73.1 55.8 187.7
08/05 01:00 5.8 64 4.59 -0.5 9 13 1026.4 0 11.3 22.2 28.0 72.6 55.2 185.7
08/05 00:50 5.9 64 4.62 -0.4 9 11 1026.5 0 11.4 22.2 28.1 72.8 55.5 186.8
08/05 00:40 6 63 4.58 -0.5 9 11 1026.6 0 11.3 22.1 27.9 72.3 54.9 184.9
08/05 00:20 6.2 62 4.56 -0.5 11 13 1026.6 0 11.3 22.0 27.7 71.9 54.6 183.5
08/05 00:10 6.2 62 4.56 -0.5 9 11 1026.7 0 11.3 22.0 27.7 71.9 54.6 183.5
08/05 00:00 6.3 61 4.52 -0.7 11 13 1026.7 0 11.2 21.9 27.6 71.4 54.0 181.5
07/05 23:50 6.5 60 4.5 -0.7 9 11 1026.7 0 11.1 21.9 27.4 71.0 53.6 180.2
07/05 23:40 6.6 59 4.46 -0.8 11 13 1026.7 0 11.0 21.8 27.2 70.6 53.0 178.2
07/05 23:30 6.6 59 4.46 -0.8 9 11 1026.8 0 11.0 21.8 27.2 70.6 53.0 178.2
07/05 23:20 6.7 58 4.41 -1 9 9 1026.8 0 10.9 21.7 27.0 70.0 52.4 175.8
07/05 23:10 6.8 58 4.44 -0.9 9 9 1026.8 0 11.0 21.7 27.1 70.2 52.7 176.9
07/05 23:00 7 58 4.5 -0.7 11 15 1026.8 0 11.1 21.8 27.2 70.6 53.3 179.1
07/05 22:50 7.1 57 4.45 -0.8 11 13 1026.9 0 11.0 21.7 27.0 70.0 52.6 176.7
07/05 22:40 7.1 56 4.37 -1.1 11 13 1026.9 0 10.8 21.5 26.7 69.2 51.6 173.3
07/05 22:30 7.4 55 4.38 -1 11 13 1027 0 10.8 21.5 26.7 69.1 51.5 173.1
07/05 22:20 7.4 55 4.38 -1 11 13 1027 0 10.8 21.5 26.7 69.1 51.5 173.1
07/05 22:10 7.4 55 4.38 -1 9 13 1027 0 10.8 21.5 26.7 69.1 51.5 173.1
07/05 22:00 7.6 54 4.35 -1.1 11 13 1026.9 0 10.8 21.4 26.5 68.6 51.0 171.3
07/05 21:50 7.8 53 4.33 -1.2 11 13 1026.8 0 10.7 21.3 26.4 68.2 50.7 170.0
07/05 21:40 8.1 51 4.25 -1.4 9 13 1026.8 0 10.5 21.1 26.0 67.2 49.5 166.0
07/05 21:30 7.8 53 4.33 -1.2 11 13 1026.7 0 10.7 21.3 26.3 68.2 50.7 170.0
07/05 21:20 8.1 50 4.16 -1.7 11 11 1026.8 0 10.3 21.0 25.6 66.3 48.4 162.2
07/05 21:10 8.3 50 4.22 -1.5 11 11 1026.8 0 10.5 21.0 25.8 66.7 49.0 164.3
07/05 21:00 8.3 50 4.22 -1.5 9 11 1026.7 0 10.5 21.0 25.8 66.7 49.0 164.3
07/05 20:50 8.5 49 4.19 -1.6 9 11 1026.7 0 10.4 20.9 25.6 66.3 48.5 162.6
07/05 20:40 8.4 49 4.16 -1.7 11 11 1026.6 0 10.3 20.9 25.5 66.0 48.2 161.6
07/05 20:30 8.5 49 4.19 -1.6 9 13 1026.7 0 10.4 20.9 25.6 66.3 48.5 162.6
07/05 20:20 8.8 48 4.18 -1.6 9 9 1026.6 0 10.4 20.9 25.5 65.9 48.2 161.6
07/05 20:10 9.1 46 4.08 -1.9 11 13 1026.6 0 10.2 20.6 25.0 64.7 46.9 156.8
07/05 20:00 9.5 45 4.1 -1.8 11 15 1026.6 0 10.2 20.6 25.0 64.6 46.9 156.9
07/05 19:50 9.7 44 4.06 -1.9 11 13 1026.5 0 10.1 20.5 24.8 64.0 46.3 154.8

Last Refresh: 08-May-2026 12:10:14

Bureau of Meteorology